Spartak — LZG2337 — position and weather

sailwx.info

Track history (hours):
 
Tides and Currents Weather Stations Pressure Air Temp Water Temp Dewpoint Dewpoint Depression Visibility Wind Speed Wind Dir Waves Ship Positions

Spartak

Last reported at 2017-Dec-03 10:46 UTC. Time now 2017-Dec-17 12:08 UTC.
Position N 44°18' E 028°03'.
Warning: this ship's position is 14 days out of date.

Length 207 m; draft 2.4 m.

Type: Tanker. MMSI: 207072337.

Date/timePositionNaut miles runAvg speedWind from/ knotsBaromVisibWave heightAir tempDewpointWater temp
2017-Dec-03 10:46N 44°18' E 028°03'1 4.1
2017-Dec-03 10:30N 44°18' E 028°04'2 4.1
2017-Dec-03 10:00N 44°16' E 028°06'3 5.9
2017-Dec-03 09:31N 44°16' E 028°10'3 6.1
2017-Dec-03 09:01N 44°15' E 028°14'3 6.0
2017-Dec-03 08:30N 44°15' E 028°18'3 5.8
2017-Dec-03 08:00N 44°14' E 028°22'3 6.1
2017-Dec-03 07:31N 44°11' E 028°24'7 5.4
2017-Dec-03 06:13N 44°06' E 028°30'1 6.1
2017-Dec-03 06:01N 44°06' E 028°32'3 5.8
2017-Dec-03 05:31N 44°06' E 028°36'1 1.3
2017-Dec-03 05:01N 44°06' E 028°37'0 0.8
2017-Dec-03 04:31N 44°06' E 028°38'2 3.1
2017-Dec-03 04:01N 44°07' E 028°39'0 0.1
2017-Dec-03 03:31N 44°07' E 028°39'0 0.0
2017-Dec-03 03:01N 44°07' E 028°39'0 0.0
2017-Dec-03 02:31N 44°07' E 028°39'0 0.0
2017-Dec-03 02:01N 44°07' E 028°39'0 0.0
2017-Dec-03 01:31N 44°07' E 028°39'0 0.0
2017-Dec-03 01:01N 44°07' E 028°39'0 0.0
2017-Dec-03 00:31N 44°07' E 028°39'0 0.0
2017-Dec-03 00:01N 44°07' E 028°39'0 0.0
2017-Dec-02 23:31N 44°07' E 028°39'0 0.0
2017-Dec-02 23:01N 44°07' E 028°39'0 0.0
2017-Dec-02 22:31N 44°07' E 028°39'0 0.0
2017-Dec-02 22:01N 44°07' E 028°39'0 0.0
2017-Dec-02 21:31N 44°07' E 028°39'0 0.0
2017-Dec-02 21:01N 44°07' E 028°39'0 0.0
2017-Dec-02 20:31N 44°07' E 028°39'0 0.0
2017-Dec-02 20:01N 44°07' E 028°39'0 0.0
2017-Dec-02 19:31N 44°07' E 028°39'0 0.0
2017-Dec-02 19:01N 44°07' E 028°39'0 0.0
2017-Dec-02 18:30N 44°07' E 028°39'0 0.0
2017-Dec-02 18:01N 44°07' E 028°39'0 0.0
2017-Dec-02 17:30N 44°07' E 028°39'0 0.0
2017-Dec-02 17:01N 44°07' E 028°39'1 1.6
2017-Dec-02 16:31N 44°08' E 028°39'1 1.8
2017-Dec-02 16:01N 44°09' E 028°40'1 1.4
2017-Dec-02 15:31N 44°08' E 028°39'1 2.1
2017-Dec-02 15:01N 44°07' E 028°39'2 3.7
2017-Dec-02 14:31N 44°09' E 028°40'0 0.3
2017-Dec-02 13:56N 44°09' E 028°40'0 0.0
2017-Dec-02 13:26N 44°09' E 028°40'0 0.0
2017-Dec-02 12:56N 44°09' E 028°40'0 0.0
2017-Dec-02 12:26N 44°09' E 028°40'0 0.0
2017-Dec-02 11:56N 44°09' E 028°40'0 0.0
2017-Dec-02 11:26N 44°09' E 028°40'0 0.0
2017-Dec-02 10:56N 44°09' E 028°40'0 0.0
2017-Dec-02 10:26N 44°09' E 028°40'0 0.0
2017-Dec-02 09:56N 44°09' E 028°40'0 0.0
2017-Dec-02 09:26N 44°09' E 028°40'0 0.0
2017-Dec-02 08:56N 44°09' E 028°40'0 0.0
2017-Dec-02 08:26N 44°09' E 028°40'0 0.0
2017-Dec-02 07:56N 44°09' E 028°40'0 0.0
2017-Dec-02 07:26N 44°09' E 028°40'0 0.0
2017-Dec-02 06:56N 44°09' E 028°40'0 0.0
2017-Dec-02 06:26N 44°09' E 028°40'0 0.0
2017-Dec-02 05:56N 44°09' E 028°40'0 0.0
2017-Dec-02 05:26N 44°09' E 028°40'0 0.4
2017-Dec-02 05:00N 44°09' E 028°40'0 0.3
2017-Dec-02 04:30N 44°09' E 028°40'0 0.0
2017-Dec-02 04:00N 44°09' E 028°40'0 0.0
2017-Dec-02 03:30N 44°09' E 028°40'0 0.0
2017-Dec-02 03:00N 44°09' E 028°40'0 0.0
2017-Dec-02 02:30N 44°09' E 028°40'0 0.0
2017-Dec-02 02:00N 44°09' E 028°40'0 0.0
2017-Dec-02 01:30N 44°09' E 028°40'0 0.0
2017-Dec-02 01:00N 44°09' E 028°40'0 0.0
2017-Dec-02 00:30N 44°09' E 028°40'0 0.0
2017-Dec-02 00:00N 44°09' E 028°40'0 0.0
2017-Dec-01 23:30N 44°09' E 028°40'0 0.0
2017-Dec-01 23:00N 44°09' E 028°40'0 0.0
2017-Dec-01 22:30N 44°09' E 028°40'0 0.0
2017-Dec-01 22:00N 44°09' E 028°40'0 0.0
2017-Dec-01 21:30N 44°09' E 028°40'0 0.0
2017-Dec-01 21:00N 44°09' E 028°40'0 0.0
2017-Dec-01 20:30N 44°09' E 028°40'0 0.0
2017-Dec-01 20:00N 44°09' E 028°40'0 0.0
2017-Dec-01 19:30N 44°09' E 028°40'0 0.0
2017-Dec-01 19:00N 44°09' E 028°40'0 0.0
2017-Dec-01 18:30N 44°09' E 028°40'0 0.0
2017-Dec-01 18:00N 44°09' E 028°40'0 0.0
2017-Dec-01 17:30N 44°09' E 028°40'0 0.0
2017-Dec-01 17:00N 44°09' E 028°40'0 0.0
2017-Dec-01 16:30N 44°09' E 028°40'0 0.0
2017-Dec-01 16:00N 44°09' E 028°40'0 0.0
2017-Dec-01 15:30N 44°09' E 028°40'0 0.0
2017-Dec-01 15:00N 44°09' E 028°40'0 0.0
2017-Dec-01 14:30N 44°09' E 028°40'0 0.0
2017-Dec-01 14:00N 44°09' E 028°40'0 0.0
2017-Dec-01 13:30N 44°09' E 028°40'0 0.0
2017-Dec-01 13:00N 44°09' E 028°40'0 0.0
2017-Dec-01 12:30N 44°09' E 028°40'0 0.0
2017-Dec-01 12:00N 44°09' E 028°40'0 0.0
2017-Dec-01 11:30N 44°09' E 028°40'0 0.0
2017-Dec-01 11:00N 44°09' E 028°40'0 0.5
2017-Dec-01 10:30N 44°09' E 028°40'0 0.0
2017-Dec-01 10:00N 44°09' E 028°40'0 0.0
2017-Dec-01 09:30N 44°09' E 028°40'0 0.0
2017-Dec-01 09:00N 44°09' E 028°40'0 0.0
2017-Dec-01 08:30N 44°09' E 028°40'0 0.0
2017-Dec-01 07:57N 44°09' E 028°40'0 0.0
2017-Dec-01 07:27N 44°09' E 028°40'0 0.0
2017-Dec-01 07:00N 44°09' E 028°40'0 0.0
2017-Dec-01 06:27N 44°09' E 028°40'0 0.0
2017-Dec-01 06:00N 44°09' E 028°40'0 0.0
2017-Dec-01 05:30N 44°09' E 028°40'0 0.0
2017-Dec-01 04:57N 44°09' E 028°40'0 0.0
2017-Dec-01 04:30N 44°09' E 028°40'0 0.0
2017-Dec-01 04:00N 44°09' E 028°40'0 0.0
2017-Dec-01 03:30N 44°09' E 028°40'0 0.0
2017-Dec-01 03:00N 44°09' E 028°40'0 0.0
2017-Dec-01 02:27N 44°09' E 028°40'0 0.0
2017-Dec-01 02:00N 44°09' E 028°40'0 0.0
2017-Dec-01 01:30N 44°09' E 028°40'0 0.0
2017-Dec-01 01:00N 44°09' E 028°40'0 0.0
2017-Dec-01 00:27N 44°09' E 028°40'0 0.0
2017-Dec-01 00:00N 44°09' E 028°40'0 0.0
2017-Nov-30 23:30N 44°09' E 028°40'0 0.0
2017-Nov-30 23:00N 44°09' E 028°40'0 0.0
2017-Nov-30 22:30N 44°09' E 028°40'0 0.0
2017-Nov-30 22:00N 44°09' E 028°40'0 0.0
2017-Nov-30 21:30N 44°09' E 028°40'0 0.0
2017-Nov-30 21:00N 44°09' E 028°40'0 0.0
2017-Nov-30 20:30N 44°09' E 028°40'0 0.0
2017-Nov-30 20:00N 44°09' E 028°40'0 0.0
2017-Nov-30 19:30N 44°09' E 028°40'0 0.0
2017-Nov-30 19:00N 44°09' E 028°40'0 0.0
2017-Nov-30 18:30N 44°09' E 028°40'0 0.0
2017-Nov-30 18:00N 44°09' E 028°40'0 0.0
2017-Nov-30 17:30N 44°09' E 028°40'0 0.0
2017-Nov-30 17:00N 44°09' E 028°40'0 0.0
2017-Nov-30 16:30N 44°09' E 028°40'0 0.0
2017-Nov-30 16:00N 44°09' E 028°40'0 0.0
2017-Nov-30 15:30N 44°09' E 028°40'0 0.0
2017-Nov-30 15:00N 44°09' E 028°40'0 0.0
2017-Nov-30 14:27N 44°09' E 028°40'0 0.0
2017-Nov-30 14:00N 44°09' E 028°40'0 0.0
2017-Nov-30 13:27N 44°09' E 028°40'0 0.0
2017-Nov-30 12:54N 44°09' E 028°40'0 0.0
2017-Nov-30 12:30N 44°09' E 028°40'0 0.0
2017-Nov-30 12:00N 44°09' E 028°40'0 0.0
2017-Nov-30 11:27N 44°09' E 028°40'0 0.0
2017-Nov-30 10:57N 44°09' E 028°40'0 0.0
2017-Nov-30 10:30N 44°09' E 028°40'0 0.0
2017-Nov-30 10:00N 44°09' E 028°40'0 0.0
2017-Nov-30 09:30N 44°09' E 028°40'0 0.0
2017-Nov-30 09:00N 44°09' E 028°40'0 0.0
2017-Nov-30 08:30N 44°09' E 028°40'0 0.0
2017-Nov-30 07:54N 44°09' E 028°40'0 0.0
2017-Nov-30 07:27N 44°09' E 028°40'0 0.0
2017-Nov-30 07:00N 44°09' E 028°40'0 0.0
2017-Nov-30 06:30N 44°09' E 028°40'0 0.0
2017-Nov-30 05:42N 44°09' E 028°40'0 0.0
2017-Nov-30 05:30N 44°09' E 028°40'0 0.0
2017-Nov-30 05:00N 44°09' E 028°40'0 0.0
2017-Nov-30 04:30N 44°09' E 028°40'0 0.0
2017-Nov-30 04:00N 44°09' E 028°40'0 0.0
2017-Nov-30 03:30N 44°09' E 028°40'0 0.0
2017-Nov-30 03:00N 44°09' E 028°40'0 0.0
2017-Nov-30 02:30N 44°09' E 028°40'0 0.0
2017-Nov-30 02:00N 44°09' E 028°40'0 0.0
2017-Nov-30 01:30N 44°09' E 028°40'0 0.0
2017-Nov-30 01:00N 44°09' E 028°40'0 0.0
2017-Nov-30 00:30N 44°09' E 028°40'0 0.0
2017-Nov-30 00:00N 44°09' E 028°40'0 0.0
2017-Nov-29 23:27N 44°09' E 028°40'0 0.0
2017-Nov-29 23:00N 44°09' E 028°40'0 0.0
2017-Nov-29 22:30N 44°09' E 028°40'0 0.0
2017-Nov-29 22:00N 44°09' E 028°40'0 0.0
2017-Nov-29 21:30N 44°09' E 028°40'0 0.0
2017-Nov-29 21:00N 44°09' E 028°40'0 0.0
2017-Nov-29 20:30N 44°09' E 028°40'0 0.0
2017-Nov-29 19:54N 44°09' E 028°40'0 0.0
2017-Nov-29 19:27N 44°09' E 028°40'0 0.0
2017-Nov-29 18:54N 44°09' E 028°40'0 0.0
2017-Nov-29 18:30N 44°09' E 028°40'0 0.0
2017-Nov-29 18:00N 44°09' E 028°40'0 0.0
2017-Nov-29 17:27N 44°09' E 028°40'0 0.0
2017-Nov-29 16:57N 44°09' E 028°40'0 0.0
2017-Nov-29 16:15N 44°09' E 028°40'0 0.0
2017-Nov-29 16:00N 44°09' E 028°40'0 0.0
2017-Nov-29 15:27N 44°09' E 028°40'0 0.0
2017-Nov-29 15:00N 44°09' E 028°40'0 0.0
2017-Nov-29 14:27N 44°09' E 028°40'0 0.0
2017-Nov-29 14:00N 44°09' E 028°40'0 0.0
2017-Nov-29 13:27N 44°09' E 028°40'0 0.0
2017-Nov-29 13:00N 44°09' E 028°40'0 0.0
2017-Nov-29 12:24N 44°09' E 028°40'0 0.0
2017-Nov-29 12:00N 44°09' E 028°40'0 0.0
2017-Nov-29 11:27N 44°09' E 028°40'0 0.0
2017-Nov-29 11:00N 44°09' E 028°40'0 0.0
2017-Nov-29 10:30N 44°09' E 028°40'0 0.0
2017-Nov-29 10:00N 44°09' E 028°40'0 0.0
2017-Nov-29 09:30N 44°09' E 028°40'0 0.0
2017-Nov-29 08:21N 44°09' E 028°40'0 0.0
2017-Nov-29 07:57N 44°09' E 028°40'0 0.0
2017-Nov-29 07:27N 44°09' E 028°40'0 0.0
2017-Nov-29 07:00N 44°09' E 028°40'0 0.0
2017-Nov-29 06:27N 44°09' E 028°40'0 0.0
2017-Nov-29 05:54N 44°09' E 028°40'0 0.0
2017-Nov-29 05:27N 44°09' E 028°40'0 0.0
2017-Nov-29 04:57N 44°09' E 028°40'0 0.0
2017-Nov-29 04:27N 44°09' E 028°40'0 0.0
2017-Nov-29 03:57N 44°09' E 028°40'0 0.0
2017-Nov-29 03:03N 44°09' E 028°40'0 0.0
2017-Nov-29 02:45N 44°09' E 028°40'0 0.0
2017-Nov-29 02:27N 44°09' E 028°40'0 0.0
2017-Nov-29 02:00N 44°09' E 028°40'0 0.0
2017-Nov-29 01:30N 44°09' E 028°40'0 0.0
2017-Nov-29 01:00N 44°09' E 028°40'0 0.0
2017-Nov-29 00:30N 44°09' E 028°40'0 0.0
2017-Nov-29 00:00N 44°09' E 028°40'0 0.0
2017-Nov-28 23:30N 44°09' E 028°40'0 0.0
2017-Nov-28 23:00N 44°09' E 028°40'0 0.0
2017-Nov-28 22:30N 44°09' E 028°40'0 0.0
2017-Nov-28 22:00N 44°09' E 028°40'0 0.0
2017-Nov-28 21:30N 44°09' E 028°40'0 0.0
2017-Nov-28 21:00N 44°09' E 028°40'0 0.0
2017-Nov-28 20:30N 44°09' E 028°40'0 0.0
2017-Nov-28 20:00N 44°09' E 028°40'0 0.0
2017-Nov-28 19:30N 44°09' E 028°40'0 0.0
2017-Nov-28 19:00N 44°09' E 028°40'0 0.0
2017-Nov-28 18:30N 44°09' E 028°40'0 0.0
2017-Nov-28 18:00N 44°09' E 028°40'0 0.0
2017-Nov-28 17:30N 44°09' E 028°40'0 0.0
2017-Nov-28 17:00N 44°09' E 028°40'0 0.0
2017-Nov-28 16:30N 44°09' E 028°40'0 0.0
2017-Nov-28 16:00N 44°09' E 028°40'0 0.0
2017-Nov-28 15:00N 44°09' E 028°40'0 0.0
2017-Nov-28 14:30N 44°09' E 028°40'0 0.0
2017-Nov-28 14:00N 44°09' E 028°40'0 0.0
2017-Nov-28 13:21N 44°09' E 028°40'0 0.0
2017-Nov-28 13:00N 44°09' E 028°40'0 0.0
2017-Nov-28 12:30N 44°09' E 028°40'0 0.0
2017-Nov-28 11:57N 44°09' E 028°40'0 0.0
2017-Nov-28 11:30N 44°09' E 028°40'0 0.0
2017-Nov-28 10:57N 44°09' E 028°40'0 0.0
2017-Nov-28 10:30N 44°09' E 028°40'0 0.0
2017-Nov-28 09:57N 44°09' E 028°40'0 0.0
2017-Nov-28 09:27N 44°09' E 028°40'0 0.0
2017-Nov-28 09:00N 44°09' E 028°40'0 0.0
2017-Nov-28 08:30N 44°09' E 028°40'0 0.0
2017-Nov-28 08:00N 44°09' E 028°40'0 0.0
2017-Nov-28 07:27N 44°09' E 028°40'0 0.0
2017-Nov-28 06:54N 44°09' E 028°40'0 0.0
2017-Nov-28 06:30N 44°09' E 028°40'0 0.0
2017-Nov-28 06:00N 44°09' E 028°40'0 0.0
2017-Nov-28 05:30N 44°09' E 028°40'0 0.0
2017-Nov-28 04:30N 44°09' E 028°40'0 0.0
2017-Nov-28 03:57N 44°09' E 028°40'0 0.0
2017-Nov-28 03:27N 44°09' E 028°40'0 0.0
2017-Nov-28 02:57N 44°09' E 028°40'0 0.0
2017-Nov-28 02:12N 44°09' E 028°40'0 0.0
2017-Nov-28 01:48N 44°09' E 028°40'0 0.0
2017-Nov-28 01:18N 44°09' E 028°40'0 0.0
2017-Nov-28 00:57N 44°09' E 028°40'0 0.0
2017-Nov-27 23:21N 44°09' E 028°40'0 0.0
2017-Nov-27 23:00N 44°09' E 028°40'0 0.0
2017-Nov-27 22:30N 44°09' E 028°40'0 0.0
2017-Nov-27 22:00N 44°09' E 028°40'0 0.0
2017-Nov-27 21:30N 44°09' E 028°40'0 0.0
2017-Nov-27 21:00N 44°09' E 028°40'0 0.0
2017-Nov-27 20:30N 44°09' E 028°40'0 0.0
2017-Nov-27 19:54N 44°09' E 028°40'0 0.0
2017-Nov-27 19:30N 44°09' E 028°40'0 0.0
2017-Nov-27 19:00N 44°09' E 028°40'0 0.0
2017-Nov-27 18:30N 44°09' E 028°40'0 0.0
2017-Nov-27 18:00N 44°09' E 028°40'0 0.0
2017-Nov-27 17:30N 44°09' E 028°40'0 0.0
2017-Nov-27 17:00N 44°09' E 028°40'0 0.0
2017-Nov-27 16:30N 44°09' E 028°40'0 0.0
2017-Nov-27 16:00N 44°09' E 028°40'0 0.0
2017-Nov-27 15:30N 44°09' E 028°40'0 0.0
2017-Nov-27 15:00N 44°09' E 028°40'0 0.0
2017-Nov-27 14:21N 44°09' E 028°40'0 0.0
2017-Nov-27 13:57N 44°09' E 028°40'0 0.0
2017-Nov-27 13:27N 44°09' E 028°40'0 0.0
2017-Nov-27 12:48N 44°09' E 028°40'0 0.0
2017-Nov-27 12:30N 44°09' E 028°40'0 0.0
2017-Nov-27 12:00N 44°09' E 028°40'0 0.0
2017-Nov-27 11:30N 44°09' E 028°40'0 0.0
2017-Nov-27 10:57N 44°09' E 028°40'0 0.0
2017-Nov-27 10:24N 44°09' E 028°40'0 0.0
2017-Nov-27 09:51N 44°09' E 028°40'0 0.0
2017-Nov-27 09:30N 44°09' E 028°40'0 0.4
2017-Nov-27 09:00N 44°09' E 028°40'0 0.4
2017-Nov-27 08:30N 44°09' E 028°40'0 0.5
2017-Nov-27 07:58N 44°09' E 028°40'0 0.0
2017-Nov-27 07:28N 44°09' E 028°40'0 0.0
2017-Nov-27 06:58N 44°09' E 028°40'0 0.0
2017-Nov-27 06:19N 44°09' E 028°40'0 0.0
2017-Nov-27 05:58N 44°09' E 028°40'0 0.0
2017-Nov-27 05:28N 44°09' E 028°40'0 0.0
2017-Nov-27 04:58N 44°09' E 028°40'0 0.0
2017-Nov-27 04:28N 44°09' E 028°40'0 0.0
2017-Nov-27 03:58N 44°09' E 028°40'0 0.0
2017-Nov-27 03:22N 44°09' E 028°40'0 0.0
2017-Nov-27 02:55N 44°09' E 028°40'0 0.0
2017-Nov-27 02:28N 44°09' E 028°40'0 0.0
2017-Nov-27 01:58N 44°09' E 028°40'0 0.0
2017-Nov-27 01:28N 44°09' E 028°40'0 0.0
2017-Nov-27 00:58N 44°09' E 028°40'0 0.0
2017-Nov-27 00:28N 44°09' E 028°40'0 0.0
2017-Nov-26 23:55N 44°09' E 028°40'0 0.0
2017-Nov-26 23:28N 44°09' E 028°40'0 0.0
2017-Nov-26 22:55N 44°09' E 028°40'0 0.0
2017-Nov-26 22:28N 44°09' E 028°40'0 0.0
2017-Nov-26 21:55N 44°09' E 028°40'0 0.0
2017-Nov-26 21:28N 44°09' E 028°40'0 0.0
2017-Nov-26 20:58N 44°09' E 028°40'0 0.0
2017-Nov-26 20:22N 44°09' E 028°40'0 0.0
2017-Nov-26 19:58N 44°09' E 028°40'0 0.0
2017-Nov-26 19:28N 44°09' E 028°40'0 0.0
2017-Nov-26 18:52N 44°09' E 028°40'0 0.0
2017-Nov-26 18:28N 44°09' E 028°40'0 0.0
2017-Nov-26 17:55N 44°09' E 028°40'0 0.0
2017-Nov-26 17:19N 44°09' E 028°40'0 0.0
2017-Nov-26 16:58N 44°09' E 028°40'0 0.0
2017-Nov-26 16:28N 44°09' E 028°40'0 0.0
2017-Nov-26 15:58N 44°09' E 028°40'0 0.0
2017-Nov-26 15:28N 44°09' E 028°40'0 0.0
2017-Nov-26 14:58N 44°09' E 028°40'0 0.0
2017-Nov-26 14:28N 44°09' E 028°40'0 0.0
2017-Nov-26 13:58N 44°09' E 028°40'0 0.0
2017-Nov-26 13:28N 44°09' E 028°40'0 0.0
2017-Nov-26 12:58N 44°09' E 028°40'0 0.0
2017-Nov-26 12:28N 44°09' E 028°40'0 0.0
2017-Nov-26 11:58N 44°09' E 028°40'0 0.0
2017-Nov-26 11:25N 44°09' E 028°40'0 0.0
2017-Nov-26 10:58N 44°09' E 028°40'0 0.0
2017-Nov-26 10:28N 44°09' E 028°40'0 0.0
2017-Nov-26 09:58N 44°09' E 028°40'0 0.0
2017-Nov-26 09:28N 44°09' E 028°40'0 0.0
2017-Nov-26 08:58N 44°09' E 028°40'0 0.0
2017-Nov-26 08:28N 44°09' E 028°40'0 0.0
2017-Nov-26 07:58N 44°09' E 028°40'0 0.0
2017-Nov-26 07:25N 44°09' E 028°40'0 0.0
2017-Nov-26 06:55N 44°09' E 028°40'0 0.0
2017-Nov-26 06:28N 44°09' E 028°40'0 0.0
2017-Nov-26 05:58N 44°09' E 028°40'0 0.0
2017-Nov-26 05:28N 44°09' E 028°40'0 0.0
2017-Nov-26 04:58N 44°09' E 028°40'0 0.0
2017-Nov-26 04:28N 44°09' E 028°40'0 0.0
2017-Nov-26 03:55N 44°09' E 028°40'0 0.0
2017-Nov-26 03:28N 44°09' E 028°40'0 0.0
2017-Nov-26 02:58N 44°09' E 028°40'0 0.0
2017-Nov-26 02:25N 44°09' E 028°40'0 0.0
2017-Nov-26 01:58N 44°09' E 028°40'0 0.0
2017-Nov-26 01:25N 44°09' E 028°40'0 0.0
2017-Nov-26 00:58N 44°09' E 028°40'0 0.0
2017-Nov-26 00:28N 44°09' E 028°40'0 0.0
2017-Nov-25 23:58N 44°09' E 028°40'0 0.0
2017-Nov-25 23:28N 44°09' E 028°40'0 0.0
2017-Nov-25 22:52N 44°09' E 028°40'0 0.0
2017-Nov-25 22:25N 44°09' E 028°40'0 0.0
2017-Nov-25 21:58N 44°09' E 028°40'0 0.0
2017-Nov-25 21:28N 44°09' E 028°40'0 0.0
2017-Nov-25 20:58N 44°09' E 028°40'0 0.0
2017-Nov-25 20:25N 44°09' E 028°40'0 0.0
2017-Nov-25 19:58N 44°09' E 028°40'0 0.0
2017-Nov-25 19:28N 44°09' E 028°40'0 0.0
2017-Nov-25 18:55N 44°09' E 028°40'0 0.0
2017-Nov-25 18:25N 44°09' E 028°40'0 0.0
2017-Nov-25 17:55N 44°09' E 028°40'0 0.0
2017-Nov-25 17:28N 44°09' E 028°40'0 0.0
2017-Nov-25 16:58N 44°09' E 028°40'0 0.0
2017-Nov-25 16:28N 44°09' E 028°40'0 0.0
2017-Nov-25 15:58N 44°09' E 028°40'0 0.0
2017-Nov-25 15:28N 44°09' E 028°40'0 0.0
2017-Nov-25 14:58N 44°09' E 028°40'0 0.0
2017-Nov-25 14:28N 44°09' E 028°40'0 0.1
2017-Nov-25 13:58N 44°09' E 028°40'0 0.0
2017-Nov-25 13:28N 44°09' E 028°40'0 0.0
2017-Nov-25 12:55N 44°09' E 028°40'0 0.0
2017-Nov-25 12:28N 44°09' E 028°40'0 0.0
2017-Nov-25 11:58N 44°09' E 028°40'0 0.0
2017-Nov-25 11:28N 44°09' E 028°40'0 0.0
2017-Nov-25 10:58N 44°09' E 028°40'0 0.0
2017-Nov-25 10:28N 44°09' E 028°40'0 0.0
2017-Nov-25 09:58N 44°09' E 028°40'0 0.0
2017-Nov-25 09:28N 44°09' E 028°40'0 0.0
2017-Nov-25 08:58N 44°09' E 028°40'0 0.0
2017-Nov-25 08:28N 44°09' E 028°40'0 0.0
2017-Nov-25 07:55N 44°09' E 028°40'0 0.0
2017-Nov-25 07:28N 44°09' E 028°40'0 0.0
2017-Nov-25 06:58N 44°09' E 028°40'0 0.0
2017-Nov-25 06:28N 44°09' E 028°40'0 0.0
2017-Nov-25 05:58N 44°09' E 028°40'0 0.0
2017-Nov-25 05:28N 44°09' E 028°40'0 0.0
2017-Nov-25 04:58N 44°09' E 028°40'0 0.0
2017-Nov-25 04:25N 44°09' E 028°40'0 0.0
2017-Nov-25 03:58N 44°09' E 028°40'0 0.0
2017-Nov-25 03:28N 44°09' E 028°40'0 0.0
2017-Nov-25 02:52N 44°09' E 028°40'0 0.0
2017-Nov-25 02:28N 44°09' E 028°40'0 0.0
2017-Nov-25 01:58N 44°09' E 028°40'0 0.0
2017-Nov-25 01:28N 44°09' E 028°40'0 0.0
2017-Nov-25 00:52N 44°09' E 028°40'0 0.0
2017-Nov-25 00:28N 44°09' E 028°40'0 0.0
2017-Nov-24 23:58N 44°09' E 028°40'0 0.0
2017-Nov-24 23:25N 44°09' E 028°40'0 0.0
2017-Nov-24 22:58N 44°09' E 028°40'0 0.0
2017-Nov-24 22:25N 44°09' E 028°40'0 0.0
2017-Nov-24 21:58N 44°09' E 028°40'0 0.0
2017-Nov-24 21:28N 44°09' E 028°40'0 0.0
2017-Nov-24 20:58N 44°09' E 028°40'0 0.0
2017-Nov-24 20:28N 44°09' E 028°40'0 0.0
2017-Nov-24 19:55N 44°09' E 028°40'0 0.0
2017-Nov-24 19:28N 44°09' E 028°40'0 0.0
2017-Nov-24 18:55N 44°09' E 028°40'0 0.0
2017-Nov-24 18:28N 44°09' E 028°40'0 0.0
2017-Nov-24 17:58N 44°09' E 028°40'0 0.0
2017-Nov-24 17:25N 44°09' E 028°40'0 0.0
2017-Nov-24 16:58N 44°09' E 028°40'0 0.0
2017-Nov-24 16:28N 44°09' E 028°40'0 0.0
2017-Nov-24 15:58N 44°09' E 028°40'0 0.0
2017-Nov-24 15:28N 44°09' E 028°40'0 0.0
2017-Nov-24 14:58N 44°09' E 028°40'0 0.0
2017-Nov-24 14:28N 44°09' E 028°40'0 0.0
2017-Nov-24 13:58N 44°09' E 028°40'0 0.0
2017-Nov-24 13:28N 44°09' E 028°40'0 0.0
2017-Nov-24 12:58N 44°09' E 028°40'0 0.0
2017-Nov-24 12:28N 44°09' E 028°40'0 0.0
2017-Nov-24 11:55N 44°09' E 028°40'0 0.0
2017-Nov-24 11:28N 44°09' E 028°40'0 0.0
2017-Nov-24 10:58N 44°09' E 028°40'0 0.0
2017-Nov-24 10:28N 44°09' E 028°40'0 0.0
2017-Nov-24 09:58N 44°09' E 028°40'0 0.0
2017-Nov-24 09:25N 44°09' E 028°40'0 0.0
2017-Nov-24 08:55N 44°09' E 028°40'0 0.0
2017-Nov-24 08:28N 44°09' E 028°40'0 0.0
2017-Nov-24 07:58N 44°09' E 028°40'0 0.0
2017-Nov-24 07:28N 44°09' E 028°40'0 0.0
2017-Nov-24 06:58N 44°09' E 028°40'0 0.0
2017-Nov-24 06:28N 44°09' E 028°40'0 0.0
2017-Nov-24 05:58N 44°09' E 028°40'0 0.0
2017-Nov-24 05:28N 44°09' E 028°40'0 0.0
2017-Nov-24 04:58N 44°09' E 028°40'0 0.0
2017-Nov-24 04:28N 44°09' E 028°40'0 0.0
2017-Nov-24 03:58N 44°09' E 028°40'0 0.0
2017-Nov-24 03:28N 44°09' E 028°40'0 0.0
2017-Nov-24 02:58N 44°09' E 028°40'0 0.0
2017-Nov-24 02:28N 44°09' E 028°40'0 0.0
2017-Nov-24 01:55N 44°09' E 028°40'0 0.0
2017-Nov-24 01:25N 44°09' E 028°40'0 0.0
2017-Nov-24 00:58N 44°09' E 028°40'0 0.0
2017-Nov-24 00:25N 44°09' E 028°40'0 0.0
2017-Nov-23 23:58N 44°09' E 028°40'0 0.0
2017-Nov-23 23:28N 44°09' E 028°40'0 0.6
2017-Nov-23 22:58N 44°09' E 028°40'0 0.6
2017-Nov-23 22:28N 44°09' E 028°40'0 0.2
2017-Nov-23 21:58N 44°09' E 028°40'0 0.0
2017-Nov-23 21:28N 44°09' E 028°40'0 0.0
2017-Nov-23 20:58N 44°09' E 028°40'0 0.0
2017-Nov-23 20:28N 44°09' E 028°40'0 0.0
2017-Nov-23 19:55N 44°09' E 028°40'0 0.0
2017-Nov-23 19:28N 44°09' E 028°40'0 0.0
2017-Nov-23 18:58N 44°09' E 028°40'0 0.0
2017-Nov-23 18:28N 44°09' E 028°40'0 0.0
2017-Nov-23 17:58N 44°09' E 028°40'0 0.0
2017-Nov-23 17:28N 44°09' E 028°40'0 0.0
2017-Nov-23 16:55N 44°09' E 028°40'0 0.0
2017-Nov-23 16:28N 44°09' E 028°40'0 0.0
2017-Nov-23 15:58N 44°09' E 028°40'0 0.0
2017-Nov-23 15:28N 44°09' E 028°40'0 0.0
2017-Nov-23 14:58N 44°09' E 028°40'0 0.0
2017-Nov-23 14:25N 44°09' E 028°40'0 0.0
2017-Nov-23 13:58N 44°09' E 028°40'0 0.0
2017-Nov-23 13:28N 44°09' E 028°40'0 0.0
2017-Nov-23 12:58N 44°09' E 028°40'0 0.0
2017-Nov-23 12:28N 44°09' E 028°40'0 0.0
2017-Nov-23 11:58N 44°09' E 028°40'0 0.0
2017-Nov-23 11:25N 44°09' E 028°40'0 0.0
2017-Nov-23 10:58N 44°09' E 028°40'  
Track history (hours):
 
Tides and Currents Weather Stations Pressure Air Temp Water Temp Dewpoint Dewpoint Depression Visibility Wind Speed Wind Dir Waves Ship Positions

Spartak

Last reported at 2017-Dec-03 10:46 UTC. Time now 2017-Dec-17 12:08 UTC.
Position N 44°18' E 028°03'.
Warning: this ship's position is 14 days out of date.

Length 207 m; draft 2.4 m.

Type: Tanker. MMSI: 207072337.

Date/timePositionNaut miles runAvg speedWind from/ knotsBaromVisibWave heightAir tempDewpointWater temp
2017-Dec-03 10:46N 44°18' E 028°03'1 4.1
2017-Dec-03 10:30N 44°18' E 028°04'2 4.1
2017-Dec-03 10:00N 44°16' E 028°06'3 5.9
2017-Dec-03 09:31N 44°16' E 028°10'3 6.1
2017-Dec-03 09:01N 44°15' E 028°14'3 6.0
2017-Dec-03 08:30N 44°15' E 028°18'3 5.8
2017-Dec-03 08:00N 44°14' E 028°22'3 6.1
2017-Dec-03 07:31N 44°11' E 028°24'7 5.4
2017-Dec-03 06:13N 44°06' E 028°30'1 6.1
2017-Dec-03 06:01N 44°06' E 028°32'3 5.8
2017-Dec-03 05:31N 44°06' E 028°36'1 1.3
2017-Dec-03 05:01N 44°06' E 028°37'0 0.8
2017-Dec-03 04:31N 44°06' E 028°38'2 3.1
2017-Dec-03 04:01N 44°07' E 028°39'0 0.1
2017-Dec-03 03:31N 44°07' E 028°39'0 0.0
2017-Dec-03 03:01N 44°07' E 028°39'0 0.0
2017-Dec-03 02:31N 44°07' E 028°39'0 0.0
2017-Dec-03 02:01N 44°07' E 028°39'0 0.0
2017-Dec-03 01:31N 44°07' E 028°39'0 0.0
2017-Dec-03 01:01N 44°07' E 028°39'0 0.0
2017-Dec-03 00:31N 44°07' E 028°39'0 0.0
2017-Dec-03 00:01N 44°07' E 028°39'0 0.0
2017-Dec-02 23:31N 44°07' E 028°39'0 0.0
2017-Dec-02 23:01N 44°07' E 028°39'0 0.0
2017-Dec-02 22:31N 44°07' E 028°39'0 0.0
2017-Dec-02 22:01N 44°07' E 028°39'0 0.0
2017-Dec-02 21:31N 44°07' E 028°39'0 0.0
2017-Dec-02 21:01N 44°07' E 028°39'0 0.0
2017-Dec-02 20:31N 44°07' E 028°39'0 0.0
2017-Dec-02 20:01N 44°07' E 028°39'0 0.0
2017-Dec-02 19:31N 44°07' E 028°39'0 0.0
2017-Dec-02 19:01N 44°07' E 028°39'0 0.0
2017-Dec-02 18:30N 44°07' E 028°39'0 0.0
2017-Dec-02 18:01N 44°07' E 028°39'0 0.0
2017-Dec-02 17:30N 44°07' E 028°39'0 0.0
2017-Dec-02 17:01N 44°07' E 028°39'1 1.6
2017-Dec-02 16:31N 44°08' E 028°39'1 1.8
2017-Dec-02 16:01N 44°09' E 028°40'1 1.4
2017-Dec-02 15:31N 44°08' E 028°39'1 2.1
2017-Dec-02 15:01N 44°07' E 028°39'2 3.7
2017-Dec-02 14:31N 44°09' E 028°40'0 0.3
2017-Dec-02 13:56N 44°09' E 028°40'0 0.0
2017-Dec-02 13:26N 44°09' E 028°40'0 0.0
2017-Dec-02 12:56N 44°09' E 028°40'0 0.0
2017-Dec-02 12:26N 44°09' E 028°40'0 0.0
2017-Dec-02 11:56N 44°09' E 028°40'0 0.0
2017-Dec-02 11:26N 44°09' E 028°40'0 0.0
2017-Dec-02 10:56N 44°09' E 028°40'0 0.0
2017-Dec-02 10:26N 44°09' E 028°40'0 0.0
2017-Dec-02 09:56N 44°09' E 028°40'0 0.0
2017-Dec-02 09:26N 44°09' E 028°40'0 0.0
2017-Dec-02 08:56N 44°09' E 028°40'0 0.0
2017-Dec-02 08:26N 44°09' E 028°40'0 0.0
2017-Dec-02 07:56N 44°09' E 028°40'0 0.0
2017-Dec-02 07:26N 44°09' E 028°40'0 0.0
2017-Dec-02 06:56N 44°09' E 028°40'0 0.0
2017-Dec-02 06:26N 44°09' E 028°40'0 0.0
2017-Dec-02 05:56N 44°09' E 028°40'0 0.0
2017-Dec-02 05:26N 44°09' E 028°40'0 0.4
2017-Dec-02 05:00N 44°09' E 028°40'0 0.3
2017-Dec-02 04:30N 44°09' E 028°40'0 0.0
2017-Dec-02 04:00N 44°09' E 028°40'0 0.0
2017-Dec-02 03:30N 44°09' E 028°40'0 0.0
2017-Dec-02 03:00N 44°09' E 028°40'0 0.0
2017-Dec-02 02:30N 44°09' E 028°40'0 0.0
2017-Dec-02 02:00N 44°09' E 028°40'0 0.0
2017-Dec-02 01:30N 44°09' E 028°40'0 0.0
2017-Dec-02 01:00N 44°09' E 028°40'0 0.0
2017-Dec-02 00:30N 44°09' E 028°40'0 0.0
2017-Dec-02 00:00N 44°09' E 028°40'0 0.0
2017-Dec-01 23:30N 44°09' E 028°40'0 0.0
2017-Dec-01 23:00N 44°09' E 028°40'0 0.0
2017-Dec-01 22:30N 44°09' E 028°40'0 0.0
2017-Dec-01 22:00N 44°09' E 028°40'0 0.0
2017-Dec-01 21:30N 44°09' E 028°40'0 0.0
2017-Dec-01 21:00N 44°09' E 028°40'0 0.0
2017-Dec-01 20:30N 44°09' E 028°40'0 0.0
2017-Dec-01 20:00N 44°09' E 028°40'0 0.0
2017-Dec-01 19:30N 44°09' E 028°40'0 0.0
2017-Dec-01 19:00N 44°09' E 028°40'0 0.0
2017-Dec-01 18:30N 44°09' E 028°40'0 0.0
2017-Dec-01 18:00N 44°09' E 028°40'0 0.0
2017-Dec-01 17:30N 44°09' E 028°40'0 0.0
2017-Dec-01 17:00N 44°09' E 028°40'0 0.0
2017-Dec-01 16:30N 44°09' E 028°40'0 0.0
2017-Dec-01 16:00N 44°09' E 028°40'0 0.0
2017-Dec-01 15:30N 44°09' E 028°40'0 0.0
2017-Dec-01 15:00N 44°09' E 028°40'0 0.0
2017-Dec-01 14:30N 44°09' E 028°40'0 0.0
2017-Dec-01 14:00N 44°09' E 028°40'0 0.0
2017-Dec-01 13:30N 44°09' E 028°40'0 0.0
2017-Dec-01 13:00N 44°09' E 028°40'0 0.0
2017-Dec-01 12:30N 44°09' E 028°40'0 0.0
2017-Dec-01 12:00N 44°09' E 028°40'0 0.0
2017-Dec-01 11:30N 44°09' E 028°40'0 0.0
2017-Dec-01 11:00N 44°09' E 028°40'0 0.5
2017-Dec-01 10:30N 44°09' E 028°40'0 0.0
2017-Dec-01 10:00N 44°09' E 028°40'0 0.0
2017-Dec-01 09:30N 44°09' E 028°40'0 0.0
2017-Dec-01 09:00N 44°09' E 028°40'0 0.0
2017-Dec-01 08:30N 44°09' E 028°40'0 0.0
2017-Dec-01 07:57N 44°09' E 028°40'0 0.0
2017-Dec-01 07:27N 44°09' E 028°40'0 0.0
2017-Dec-01 07:00N 44°09' E 028°40'0 0.0
2017-Dec-01 06:27N 44°09' E 028°40'0 0.0
2017-Dec-01 06:00N 44°09' E 028°40'0 0.0
2017-Dec-01 05:30N 44°09' E 028°40'0 0.0
2017-Dec-01 04:57N 44°09' E 028°40'0 0.0
2017-Dec-01 04:30N 44°09' E 028°40'0 0.0
2017-Dec-01 04:00N 44°09' E 028°40'0 0.0
2017-Dec-01 03:30N 44°09' E 028°40'0 0.0
2017-Dec-01 03:00N 44°09' E 028°40'0 0.0
2017-Dec-01 02:27N 44°09' E 028°40'0 0.0
2017-Dec-01 02:00N 44°09' E 028°40'0 0.0
2017-Dec-01 01:30N 44°09' E 028°40'0 0.0
2017-Dec-01 01:00N 44°09' E 028°40'0 0.0
2017-Dec-01 00:27N 44°09' E 028°40'0 0.0
2017-Dec-01 00:00N 44°09' E 028°40'0 0.0
2017-Nov-30 23:30N 44°09' E 028°40'0 0.0
2017-Nov-30 23:00N 44°09' E 028°40'0 0.0
2017-Nov-30 22:30N 44°09' E 028°40'0 0.0
2017-Nov-30 22:00N 44°09' E 028°40'0 0.0
2017-Nov-30 21:30N 44°09' E 028°40'0 0.0
2017-Nov-30 21:00N 44°09' E 028°40'0 0.0
2017-Nov-30 20:30N 44°09' E 028°40'0 0.0
2017-Nov-30 20:00N 44°09' E 028°40'0 0.0
2017-Nov-30 19:30N 44°09' E 028°40'0 0.0
2017-Nov-30 19:00N 44°09' E 028°40'0 0.0
2017-Nov-30 18:30N 44°09' E 028°40'0 0.0
2017-Nov-30 18:00N 44°09' E 028°40'0 0.0
2017-Nov-30 17:30N 44°09' E 028°40'0 0.0
2017-Nov-30 17:00N 44°09' E 028°40'0 0.0
2017-Nov-30 16:30N 44°09' E 028°40'0 0.0
2017-Nov-30 16:00N 44°09' E 028°40'0 0.0
2017-Nov-30 15:30N 44°09' E 028°40'0 0.0
2017-Nov-30 15:00N 44°09' E 028°40'0 0.0
2017-Nov-30 14:27N 44°09' E 028°40'0 0.0
2017-Nov-30 14:00N 44°09' E 028°40'0 0.0
2017-Nov-30 13:27N 44°09' E 028°40'0 0.0
2017-Nov-30 12:54N 44°09' E 028°40'0 0.0
2017-Nov-30 12:30N 44°09' E 028°40'0 0.0
2017-Nov-30 12:00N 44°09' E 028°40'0 0.0
2017-Nov-30 11:27N 44°09' E 028°40'0 0.0
2017-Nov-30 10:57N 44°09' E 028°40'0 0.0
2017-Nov-30 10:30N 44°09' E 028°40'0 0.0
2017-Nov-30 10:00N 44°09' E 028°40'0 0.0
2017-Nov-30 09:30N 44°09' E 028°40'0 0.0
2017-Nov-30 09:00N 44°09' E 028°40'0 0.0
2017-Nov-30 08:30N 44°09' E 028°40'0 0.0
2017-Nov-30 07:54N 44°09' E 028°40'0 0.0
2017-Nov-30 07:27N 44°09' E 028°40'0 0.0
2017-Nov-30 07:00N 44°09' E 028°40'0 0.0
2017-Nov-30 06:30N 44°09' E 028°40'0 0.0
2017-Nov-30 05:42N 44°09' E 028°40'0 0.0
2017-Nov-30 05:30N 44°09' E 028°40'0 0.0
2017-Nov-30 05:00N 44°09' E 028°40'0 0.0
2017-Nov-30 04:30N 44°09' E 028°40'0 0.0
2017-Nov-30 04:00N 44°09' E 028°40'0 0.0
2017-Nov-30 03:30N 44°09' E 028°40'0 0.0
2017-Nov-30 03:00N 44°09' E 028°40'0 0.0
2017-Nov-30 02:30N 44°09' E 028°40'0 0.0
2017-Nov-30 02:00N 44°09' E 028°40'0 0.0
2017-Nov-30 01:30N 44°09' E 028°40'0 0.0
2017-Nov-30 01:00N 44°09' E 028°40'0 0.0
2017-Nov-30 00:30N 44°09' E 028°40'0 0.0
2017-Nov-30 00:00N 44°09' E 028°40'0 0.0
2017-Nov-29 23:27N 44°09' E 028°40'0 0.0
2017-Nov-29 23:00N 44°09' E 028°40'0 0.0
2017-Nov-29 22:30N 44°09' E 028°40'0 0.0
2017-Nov-29 22:00N 44°09' E 028°40'0 0.0
2017-Nov-29 21:30N 44°09' E 028°40'0 0.0
2017-Nov-29 21:00N 44°09' E 028°40'0 0.0
2017-Nov-29 20:30N 44°09' E 028°40'0 0.0
2017-Nov-29 19:54N 44°09' E 028°40'0 0.0
2017-Nov-29 19:27N 44°09' E 028°40'0 0.0
2017-Nov-29 18:54N 44°09' E 028°40'0 0.0
2017-Nov-29 18:30N 44°09' E 028°40'0 0.0
2017-Nov-29 18:00N 44°09' E 028°40'0 0.0
2017-Nov-29 17:27N 44°09' E 028°40'0 0.0
2017-Nov-29 16:57N 44°09' E 028°40'0 0.0
2017-Nov-29 16:15N 44°09' E 028°40'0 0.0
2017-Nov-29 16:00N 44°09' E 028°40'0 0.0
2017-Nov-29 15:27N 44°09' E 028°40'0 0.0
2017-Nov-29 15:00N 44°09' E 028°40'0 0.0
2017-Nov-29 14:27N 44°09' E 028°40'0 0.0
2017-Nov-29 14:00N 44°09' E 028°40'0 0.0
2017-Nov-29 13:27N 44°09' E 028°40'0 0.0
2017-Nov-29 13:00N 44°09' E 028°40'0 0.0
2017-Nov-29 12:24N 44°09' E 028°40'0 0.0
2017-Nov-29 12:00N 44°09' E 028°40'0 0.0
2017-Nov-29 11:27N 44°09' E 028°40'0 0.0
2017-Nov-29 11:00N 44°09' E 028°40'0 0.0
2017-Nov-29 10:30N 44°09' E 028°40'0 0.0
2017-Nov-29 10:00N 44°09' E 028°40'0 0.0
2017-Nov-29 09:30N 44°09' E 028°40'0 0.0
2017-Nov-29 08:21N 44°09' E 028°40'0 0.0
2017-Nov-29 07:57N 44°09' E 028°40'0 0.0
2017-Nov-29 07:27N 44°09' E 028°40'0 0.0
2017-Nov-29 07:00N 44°09' E 028°40'0 0.0
2017-Nov-29 06:27N 44°09' E 028°40'0 0.0
2017-Nov-29 05:54N 44°09' E 028°40'0 0.0
2017-Nov-29 05:27N 44°09' E 028°40'0 0.0
2017-Nov-29 04:57N 44°09' E 028°40'0 0.0
2017-Nov-29 04:27N 44°09' E 028°40'0 0.0
2017-Nov-29 03:57N 44°09' E 028°40'0 0.0
2017-Nov-29 03:03N 44°09' E 028°40'0 0.0
2017-Nov-29 02:45N 44°09' E 028°40'0 0.0
2017-Nov-29 02:27N 44°09' E 028°40'0 0.0
2017-Nov-29 02:00N 44°09' E 028°40'0 0.0
2017-Nov-29 01:30N 44°09' E 028°40'0 0.0
2017-Nov-29 01:00N 44°09' E 028°40'0 0.0
2017-Nov-29 00:30N 44°09' E 028°40'0 0.0
2017-Nov-29 00:00N 44°09' E 028°40'0 0.0
2017-Nov-28 23:30N 44°09' E 028°40'0 0.0
2017-Nov-28 23:00N 44°09' E 028°40'0 0.0
2017-Nov-28 22:30N 44°09' E 028°40'0 0.0
2017-Nov-28 22:00N 44°09' E 028°40'0 0.0
2017-Nov-28 21:30N 44°09' E 028°40'0 0.0
2017-Nov-28 21:00N 44°09' E 028°40'0 0.0
2017-Nov-28 20:30N 44°09' E 028°40'0 0.0
2017-Nov-28 20:00N 44°09' E 028°40'0 0.0
2017-Nov-28 19:30N 44°09' E 028°40'0 0.0
2017-Nov-28 19:00N 44°09' E 028°40'0 0.0
2017-Nov-28 18:30N 44°09' E 028°40'0 0.0
2017-Nov-28 18:00N 44°09' E 028°40'0 0.0
2017-Nov-28 17:30N 44°09' E 028°40'0 0.0
2017-Nov-28 17:00N 44°09' E 028°40'0 0.0
2017-Nov-28 16:30N 44°09' E 028°40'0 0.0
2017-Nov-28 16:00N 44°09' E 028°40'0 0.0
2017-Nov-28 15:00N 44°09' E 028°40'0 0.0
2017-Nov-28 14:30N 44°09' E 028°40'0 0.0
2017-Nov-28 14:00N 44°09' E 028°40'0 0.0
2017-Nov-28 13:21N 44°09' E 028°40'0 0.0
2017-Nov-28 13:00N 44°09' E 028°40'0 0.0
2017-Nov-28 12:30N 44°09' E 028°40'0 0.0
2017-Nov-28 11:57N 44°09' E 028°40'0 0.0
2017-Nov-28 11:30N 44°09' E 028°40'0 0.0
2017-Nov-28 10:57N 44°09' E 028°40'0 0.0
2017-Nov-28 10:30N 44°09' E 028°40'0 0.0
2017-Nov-28 09:57N 44°09' E 028°40'0 0.0
2017-Nov-28 09:27N 44°09' E 028°40'0 0.0
2017-Nov-28 09:00N 44°09' E 028°40'0 0.0
2017-Nov-28 08:30N 44°09' E 028°40'0 0.0
2017-Nov-28 08:00N 44°09' E 028°40'0 0.0
2017-Nov-28 07:27N 44°09' E 028°40'0 0.0
2017-Nov-28 06:54N 44°09' E 028°40'0 0.0
2017-Nov-28 06:30N 44°09' E 028°40'0 0.0
2017-Nov-28 06:00N 44°09' E 028°40'0 0.0
2017-Nov-28 05:30N 44°09' E 028°40'0 0.0
2017-Nov-28 04:30N 44°09' E 028°40'0 0.0
2017-Nov-28 03:57N 44°09' E 028°40'0 0.0
2017-Nov-28 03:27N 44°09' E 028°40'0 0.0
2017-Nov-28 02:57N 44°09' E 028°40'0 0.0
2017-Nov-28 02:12N 44°09' E 028°40'0 0.0
2017-Nov-28 01:48N 44°09' E 028°40'0 0.0
2017-Nov-28 01:18N 44°09' E 028°40'0 0.0
2017-Nov-28 00:57N 44°09' E 028°40'0 0.0
2017-Nov-27 23:21N 44°09' E 028°40'0 0.0
2017-Nov-27 23:00N 44°09' E 028°40'0 0.0
2017-Nov-27 22:30N 44°09' E 028°40'0 0.0
2017-Nov-27 22:00N 44°09' E 028°40'0 0.0
2017-Nov-27 21:30N 44°09' E 028°40'0 0.0
2017-Nov-27 21:00N 44°09' E 028°40'0 0.0
2017-Nov-27 20:30N 44°09' E 028°40'0 0.0
2017-Nov-27 19:54N 44°09' E 028°40'0 0.0
2017-Nov-27 19:30N 44°09' E 028°40'0 0.0
2017-Nov-27 19:00N 44°09' E 028°40'0 0.0
2017-Nov-27 18:30N 44°09' E 028°40'0 0.0
2017-Nov-27 18:00N 44°09' E 028°40'0 0.0
2017-Nov-27 17:30N 44°09' E 028°40'0 0.0
2017-Nov-27 17:00N 44°09' E 028°40'0 0.0
2017-Nov-27 16:30N 44°09' E 028°40'0 0.0
2017-Nov-27 16:00N 44°09' E 028°40'0 0.0
2017-Nov-27 15:30N 44°09' E 028°40'0 0.0
2017-Nov-27 15:00N 44°09' E 028°40'0 0.0
2017-Nov-27 14:21N 44°09' E 028°40'0 0.0
2017-Nov-27 13:57N 44°09' E 028°40'0 0.0
2017-Nov-27 13:27N 44°09' E 028°40'0 0.0
2017-Nov-27 12:48N 44°09' E 028°40'0 0.0
2017-Nov-27 12:30N 44°09' E 028°40'0 0.0
2017-Nov-27 12:00N 44°09' E 028°40'0 0.0
2017-Nov-27 11:30N 44°09' E 028°40'0 0.0
2017-Nov-27 10:57N 44°09' E 028°40'0 0.0
2017-Nov-27 10:24N 44°09' E 028°40'0 0.0
2017-Nov-27 09:51N 44°09' E 028°40'0 0.0
2017-Nov-27 09:30N 44°09' E 028°40'0 0.4
2017-Nov-27 09:00N 44°09' E 028°40'0 0.4
2017-Nov-27 08:30N 44°09' E 028°40'0 0.5
2017-Nov-27 07:58N 44°09' E 028°40'0 0.0
2017-Nov-27 07:28N 44°09' E 028°40'0 0.0
2017-Nov-27 06:58N 44°09' E 028°40'0 0.0
2017-Nov-27 06:19N 44°09' E 028°40'0 0.0
2017-Nov-27 05:58N 44°09' E 028°40'0 0.0
2017-Nov-27 05:28N 44°09' E 028°40'0 0.0
2017-Nov-27 04:58N 44°09' E 028°40'0 0.0
2017-Nov-27 04:28N 44°09' E 028°40'0 0.0
2017-Nov-27 03:58N 44°09' E 028°40'0 0.0
2017-Nov-27 03:22N 44°09' E 028°40'0 0.0
2017-Nov-27 02:55N 44°09' E 028°40'0 0.0
2017-Nov-27 02:28N 44°09' E 028°40'0 0.0
2017-Nov-27 01:58N 44°09' E 028°40'0 0.0
2017-Nov-27 01:28N 44°09' E 028°40'0 0.0
2017-Nov-27 00:58N 44°09' E 028°40'0 0.0
2017-Nov-27 00:28N 44°09' E 028°40'0 0.0
2017-Nov-26 23:55N 44°09' E 028°40'0 0.0
2017-Nov-26 23:28N 44°09' E 028°40'0 0.0
2017-Nov-26 22:55N 44°09' E 028°40'0 0.0
2017-Nov-26 22:28N 44°09' E 028°40'0 0.0
2017-Nov-26 21:55N 44°09' E 028°40'0 0.0
2017-Nov-26 21:28N 44°09' E 028°40'0 0.0
2017-Nov-26 20:58N 44°09' E 028°40'0 0.0
2017-Nov-26 20:22N 44°09' E 028°40'0 0.0
2017-Nov-26 19:58N 44°09' E 028°40'0 0.0
2017-Nov-26 19:28N 44°09' E 028°40'0 0.0
2017-Nov-26 18:52N 44°09' E 028°40'0 0.0
2017-Nov-26 18:28N 44°09' E 028°40'0 0.0
2017-Nov-26 17:55N 44°09' E 028°40'0 0.0
2017-Nov-26 17:19N 44°09' E 028°40'0 0.0
2017-Nov-26 16:58N 44°09' E 028°40'0 0.0
2017-Nov-26 16:28N 44°09' E 028°40'0 0.0
2017-Nov-26 15:58N 44°09' E 028°40'0 0.0
2017-Nov-26 15:28N 44°09' E 028°40'0 0.0
2017-Nov-26 14:58N 44°09' E 028°40'0 0.0
2017-Nov-26 14:28N 44°09' E 028°40'0 0.0
2017-Nov-26 13:58N 44°09' E 028°40'0 0.0
2017-Nov-26 13:28N 44°09' E 028°40'0 0.0
2017-Nov-26 12:58N 44°09' E 028°40'0 0.0
2017-Nov-26 12:28N 44°09' E 028°40'0 0.0
2017-Nov-26 11:58N 44°09' E 028°40'0 0.0
2017-Nov-26 11:25N 44°09' E 028°40'0 0.0
2017-Nov-26 10:58N 44°09' E 028°40'0 0.0
2017-Nov-26 10:28N 44°09' E 028°40'0 0.0
2017-Nov-26 09:58N 44°09' E 028°40'0 0.0
2017-Nov-26 09:28N 44°09' E 028°40'0 0.0
2017-Nov-26 08:58N 44°09' E 028°40'0 0.0
2017-Nov-26 08:28N 44°09' E 028°40'0 0.0
2017-Nov-26 07:58N 44°09' E 028°40'0 0.0
2017-Nov-26 07:25N 44°09' E 028°40'0 0.0
2017-Nov-26 06:55N 44°09' E 028°40'0 0.0
2017-Nov-26 06:28N 44°09' E 028°40'0 0.0
2017-Nov-26 05:58N 44°09' E 028°40'0 0.0
2017-Nov-26 05:28N 44°09' E 028°40'0 0.0
2017-Nov-26 04:58N 44°09' E 028°40'0 0.0
2017-Nov-26 04:28N 44°09' E 028°40'0 0.0
2017-Nov-26 03:55N 44°09' E 028°40'0 0.0
2017-Nov-26 03:28N 44°09' E 028°40'0 0.0
2017-Nov-26 02:58N 44°09' E 028°40'0 0.0
2017-Nov-26 02:25N 44°09' E 028°40'0 0.0
2017-Nov-26 01:58N 44°09' E 028°40'0 0.0
2017-Nov-26 01:25N 44°09' E 028°40'0 0.0
2017-Nov-26 00:58N 44°09' E 028°40'0 0.0
2017-Nov-26 00:28N 44°09' E 028°40'0 0.0
2017-Nov-25 23:58N 44°09' E 028°40'0 0.0
2017-Nov-25 23:28N 44°09' E 028°40'0 0.0
2017-Nov-25 22:52N 44°09' E 028°40'0 0.0
2017-Nov-25 22:25N 44°09' E 028°40'0 0.0
2017-Nov-25 21:58N 44°09' E 028°40'0 0.0
2017-Nov-25 21:28N 44°09' E 028°40'0 0.0
2017-Nov-25 20:58N 44°09' E 028°40'0 0.0
2017-Nov-25 20:25N 44°09' E 028°40'0 0.0
2017-Nov-25 19:58N 44°09' E 028°40'0 0.0
2017-Nov-25 19:28N 44°09' E 028°40'0 0.0
2017-Nov-25 18:55N 44°09' E 028°40'0 0.0
2017-Nov-25 18:25N 44°09' E 028°40'0 0.0
2017-Nov-25 17:55N 44°09' E 028°40'0 0.0
2017-Nov-25 17:28N 44°09' E 028°40'0 0.0
2017-Nov-25 16:58N 44°09' E 028°40'0 0.0
2017-Nov-25 16:28N 44°09' E 028°40'0 0.0
2017-Nov-25 15:58N 44°09' E 028°40'0 0.0
2017-Nov-25 15:28N 44°09' E 028°40'0 0.0
2017-Nov-25 14:58N 44°09' E 028°40'0 0.0
2017-Nov-25 14:28N 44°09' E 028°40'0 0.1
2017-Nov-25 13:58N 44°09' E 028°40'0 0.0
2017-Nov-25 13:28N 44°09' E 028°40'0 0.0
2017-Nov-25 12:55N 44°09' E 028°40'0 0.0
2017-Nov-25 12:28N 44°09' E 028°40'0 0.0
2017-Nov-25 11:58N 44°09' E 028°40'0 0.0
2017-Nov-25 11:28N 44°09' E 028°40'0 0.0
2017-Nov-25 10:58N 44°09' E 028°40'0 0.0
2017-Nov-25 10:28N 44°09' E 028°40'0 0.0
2017-Nov-25 09:58N 44°09' E 028°40'0 0.0
2017-Nov-25 09:28N 44°09' E 028°40'0 0.0
2017-Nov-25 08:58N 44°09' E 028°40'0 0.0
2017-Nov-25 08:28N 44°09' E 028°40'0 0.0
2017-Nov-25 07:55N 44°09' E 028°40'0 0.0
2017-Nov-25 07:28N 44°09' E 028°40'0 0.0
2017-Nov-25 06:58N 44°09' E 028°40'0 0.0
2017-Nov-25 06:28N 44°09' E 028°40'0 0.0
2017-Nov-25 05:58N 44°09' E 028°40'0 0.0
2017-Nov-25 05:28N 44°09' E 028°40'0 0.0
2017-Nov-25 04:58N 44°09' E 028°40'0 0.0
2017-Nov-25 04:25N 44°09' E 028°40'0 0.0
2017-Nov-25 03:58N 44°09' E 028°40'0 0.0
2017-Nov-25 03:28N 44°09' E 028°40'0 0.0
2017-Nov-25 02:52N 44°09' E 028°40'0 0.0
2017-Nov-25 02:28N 44°09' E 028°40'0 0.0
2017-Nov-25 01:58N 44°09' E 028°40'0 0.0
2017-Nov-25 01:28N 44°09' E 028°40'0 0.0
2017-Nov-25 00:52N 44°09' E 028°40'0 0.0
2017-Nov-25 00:28N 44°09' E 028°40'0 0.0
2017-Nov-24 23:58N 44°09' E 028°40'0 0.0
2017-Nov-24 23:25N 44°09' E 028°40'0 0.0
2017-Nov-24 22:58N 44°09' E 028°40'0 0.0
2017-Nov-24 22:25N 44°09' E 028°40'0 0.0
2017-Nov-24 21:58N 44°09' E 028°40'0 0.0
2017-Nov-24 21:28N 44°09' E 028°40'0 0.0
2017-Nov-24 20:58N 44°09' E 028°40'0 0.0
2017-Nov-24 20:28N 44°09' E 028°40'0 0.0
2017-Nov-24 19:55N 44°09' E 028°40'0 0.0
2017-Nov-24 19:28N 44°09' E 028°40'0 0.0
2017-Nov-24 18:55N 44°09' E 028°40'0 0.0
2017-Nov-24 18:28N 44°09' E 028°40'0 0.0
2017-Nov-24 17:58N 44°09' E 028°40'0 0.0
2017-Nov-24 17:25N 44°09' E 028°40'0 0.0
2017-Nov-24 16:58N 44°09' E 028°40'0 0.0
2017-Nov-24 16:28N 44°09' E 028°40'0 0.0
2017-Nov-24 15:58N 44°09' E 028°40'0 0.0
2017-Nov-24 15:28N 44°09' E 028°40'0 0.0
2017-Nov-24 14:58N 44°09' E 028°40'0 0.0
2017-Nov-24 14:28N 44°09' E 028°40'0 0.0
2017-Nov-24 13:58N 44°09' E 028°40'0 0.0
2017-Nov-24 13:28N 44°09' E 028°40'0 0.0
2017-Nov-24 12:58N 44°09' E 028°40'0 0.0
2017-Nov-24 12:28N 44°09' E 028°40'0 0.0
2017-Nov-24 11:55N 44°09' E 028°40'0 0.0
2017-Nov-24 11:28N 44°09' E 028°40'0 0.0
2017-Nov-24 10:58N 44°09' E 028°40'0 0.0
2017-Nov-24 10:28N 44°09' E 028°40'0 0.0
2017-Nov-24 09:58N 44°09' E 028°40'0 0.0
2017-Nov-24 09:25N 44°09' E 028°40'0 0.0
2017-Nov-24 08:55N 44°09' E 028°40'0 0.0
2017-Nov-24 08:28N 44°09' E 028°40'0 0.0
2017-Nov-24 07:58N 44°09' E 028°40'0 0.0
2017-Nov-24 07:28N 44°09' E 028°40'0 0.0
2017-Nov-24 06:58N 44°09' E 028°40'0 0.0
2017-Nov-24 06:28N 44°09' E 028°40'0 0.0
2017-Nov-24 05:58N 44°09' E 028°40'0 0.0
2017-Nov-24 05:28N 44°09' E 028°40'0 0.0
2017-Nov-24 04:58N 44°09' E 028°40'0 0.0
2017-Nov-24 04:28N 44°09' E 028°40'0 0.0
2017-Nov-24 03:58N 44°09' E 028°40'0 0.0
2017-Nov-24 03:28N 44°09' E 028°40'0 0.0
2017-Nov-24 02:58N 44°09' E 028°40'0 0.0
2017-Nov-24 02:28N 44°09' E 028°40'0 0.0
2017-Nov-24 01:55N 44°09' E 028°40'0 0.0
2017-Nov-24 01:25N 44°09' E 028°40'0 0.0
2017-Nov-24 00:58N 44°09' E 028°40'0 0.0
2017-Nov-24 00:25N 44°09' E 028°40'0 0.0
2017-Nov-23 23:58N 44°09' E 028°40'0 0.0
2017-Nov-23 23:28N 44°09' E 028°40'0 0.6
2017-Nov-23 22:58N 44°09' E 028°40'0 0.6
2017-Nov-23 22:28N 44°09' E 028°40'0 0.2
2017-Nov-23 21:58N 44°09' E 028°40'0 0.0
2017-Nov-23 21:28N 44°09' E 028°40'0 0.0
2017-Nov-23 20:58N 44°09' E 028°40'0 0.0
2017-Nov-23 20:28N 44°09' E 028°40'0 0.0
2017-Nov-23 19:55N 44°09' E 028°40'0 0.0
2017-Nov-23 19:28N 44°09' E 028°40'0 0.0
2017-Nov-23 18:58N 44°09' E 028°40'0 0.0
2017-Nov-23 18:28N 44°09' E 028°40'0 0.0
2017-Nov-23 17:58N 44°09' E 028°40'0 0.0
2017-Nov-23 17:28N 44°09' E 028°40'0 0.0
2017-Nov-23 16:55N 44°09' E 028°40'0 0.0
2017-Nov-23 16:28N 44°09' E 028°40'0 0.0
2017-Nov-23 15:58N 44°09' E 028°40'0 0.0
2017-Nov-23 15:28N 44°09' E 028°40'0 0.0
2017-Nov-23 14:58N 44°09' E 028°40'0 0.0
2017-Nov-23 14:25N 44°09' E 028°40'0 0.0
2017-Nov-23 13:58N 44°09' E 028°40'0 0.0
2017-Nov-23 13:28N 44°09' E 028°40'0 0.0
2017-Nov-23 12:58N 44°09' E 028°40'0 0.0
2017-Nov-23 12:28N 44°09' E 028°40'0 0.0
2017-Nov-23 11:58N 44°09' E 028°40'0 0.0
2017-Nov-23 11:25N 44°09' E 028°40'0 0.0
2017-Nov-23 10:58N 44°09' E 028°40'  

Dump ship's entire track history